ESMS/MMX METAR and TAF weather

Enter ICAO airport designator
Station Type Date Time Source
ESMS METAR 2019/08/21 21:50 UTC NOAA

ESMS 212150Z 16003KT CAVOK 09/08 Q1027


Station Type Date Time Source
ESMS Decoded METAR 2019/08/21 21:50 UTC NOAA

Station name not available
Aug 21, 2019 - 05:50 PM EDT / 2019.08.21 2150 UTC
Wind: from the SSE (160 degrees) at 3 MPH (3 KT):0
Visibility: greater than 7 mile(s):0
Temperature: 48 F (9 C)
Dew Point: 46 F (8 C)
Relative Humidity: 93%
Pressure (altimeter): 30.33 in. Hg (1027 hPa)
ob: ESMS 212150Z 16003KT CAVOK 09/08 Q1027
cycle: 22

Station Type Date Time Source
ESMS TAF 2019/08/21 18:36 UTC NOAA

TAF ESMS 211702Z 2118/2218 28008KT 9999 SCT030

Example: see airport list